createdAt,value
2023-08-06T00:03:34.620Z,15.17
2023-08-06T00:06:01.678Z,15.17
2023-08-06T00:08:28.638Z,15.17
2023-08-06T00:10:56.283Z,15.15
2023-08-06T00:13:24.772Z,15.16
2023-08-06T00:15:52.314Z,15.14
2023-08-06T00:18:19.285Z,15.14
2023-08-06T00:20:46.129Z,15.13
2023-08-06T00:26:01.827Z,15.13
2023-08-06T00:28:31.369Z,15.14
2023-08-06T00:30:58.499Z,15.10
2023-08-06T00:33:26.187Z,15.08
2023-08-06T00:35:54.309Z,15.09
2023-08-06T00:38:21.210Z,15.05
2023-08-06T00:40:49.392Z,15.05
2023-08-06T00:43:16.993Z,15.04
2023-08-06T00:45:44.843Z,15.03
2023-08-06T00:48:13.411Z,15.02
2023-08-06T00:50:40.314Z,15.02
2023-08-06T00:53:07.641Z,15.03
2023-08-06T00:55:34.853Z,15.03
2023-08-06T00:58:02.545Z,15.00
2023-08-06T01:00:30.187Z,14.98
2023-08-06T01:02:58.155Z,14.96
2023-08-06T01:05:25.208Z,14.96
2023-08-06T01:08:05.067Z,14.95
2023-08-06T01:10:44.095Z,14.95
2023-08-06T01:13:34.552Z,14.94
2023-08-06T01:16:04.575Z,14.94
2023-08-06T01:18:35.365Z,14.92
2023-08-06T01:21:02.889Z,14.92
2023-08-06T01:23:29.981Z,14.97
2023-08-06T01:26:04.139Z,14.94
2023-08-06T01:28:57.623Z,14.91
2023-08-06T01:31:33.093Z,14.90
2023-08-06T01:34:02.250Z,14.90
2023-08-06T01:36:29.757Z,14.87
2023-08-06T01:38:57.432Z,14.87
2023-08-06T01:41:25.616Z,14.84
2023-08-06T01:43:52.580Z,14.84
2023-08-06T01:46:20.413Z,14.84
2023-08-06T01:48:47.740Z,14.82
2023-08-06T01:51:15.053Z,14.82
2023-08-06T01:53:45.086Z,14.82
2023-08-06T01:56:12.847Z,14.81
2023-08-06T01:58:39.781Z,14.84
2023-08-06T02:01:07.118Z,14.84
2023-08-06T02:03:34.107Z,14.82
2023-08-06T02:06:01.132Z,14.79
2023-08-06T02:08:29.441Z,14.78
2023-08-06T02:10:57.524Z,14.76
2023-08-06T02:13:24.497Z,14.78
2023-08-06T02:15:52.485Z,14.77
2023-08-06T02:18:19.366Z,14.76
2023-08-06T02:20:57.677Z,14.76
2023-08-06T02:23:25.812Z,14.77
2023-08-06T02:26:04.441Z,14.76
2023-08-06T02:28:32.286Z,14.75
2023-08-06T02:30:59.952Z,14.77
2023-08-06T02:33:30.401Z,14.77
2023-08-06T02:36:03.016Z,14.78
2023-08-06T02:41:23.526Z,14.79
2023-08-06T02:43:51.717Z,14.79
2023-08-06T02:46:18.685Z,14.80
2023-08-06T02:48:46.238Z,14.80
2023-08-06T02:51:14.457Z,14.82
2023-08-06T02:53:43.044Z,14.82
2023-08-06T02:56:12.418Z,14.80
2023-08-06T02:58:56.105Z,14.82
2023-08-06T03:01:57.485Z,14.83
2023-08-06T03:04:33.452Z,14.85
2023-08-06T03:07:01.634Z,14.87
2023-08-06T03:09:37.742Z,14.91
2023-08-06T03:12:33.466Z,14.91
2023-08-06T03:15:03.320Z,14.90
2023-08-06T03:17:32.539Z,14.91
2023-08-06T03:19:59.426Z,14.90
2023-08-06T03:22:27.295Z,14.89
2023-08-06T03:24:54.465Z,14.90
2023-08-06T03:27:25.586Z,14.89
2023-08-06T03:29:53.540Z,14.90
2023-08-06T03:32:23.432Z,14.92
2023-08-06T03:34:51.119Z,14.92
2023-08-06T03:37:18.450Z,14.93
2023-08-06T03:39:45.312Z,14.95
2023-08-06T03:42:12.254Z,14.92
2023-08-06T03:44:39.996Z,14.92
2023-08-06T03:47:08.811Z,14.97
2023-08-06T03:49:36.524Z,14.97
2023-08-06T03:52:06.720Z,14.97
2023-08-06T03:54:34.995Z,14.96
2023-08-06T03:57:02.696Z,14.96
2023-08-06T03:59:30.034Z,15.00
2023-08-06T04:01:57.693Z,14.97
2023-08-06T04:04:25.414Z,14.99
2023-08-06T04:06:52.427Z,14.99
2023-08-06T04:09:22.757Z,14.99
2023-08-06T04:11:51.116Z,15.00
2023-08-06T04:14:19.541Z,15.00
2023-08-06T04:16:46.457Z,15.02
2023-08-06T04:19:15.498Z,15.01
2023-08-06T04:21:42.982Z,15.03
2023-08-06T04:24:11.414Z,15.01
2023-08-06T04:26:39.529Z,15.01
2023-08-06T04:29:06.430Z,15.00
2023-08-06T04:31:34.500Z,14.97
2023-08-06T04:34:02.201Z,14.99
2023-08-06T04:36:30.033Z,14.98
2023-08-06T04:39:00.526Z,14.98
2023-08-06T04:41:28.523Z,14.99
2023-08-06T04:43:55.504Z,15.00
2023-08-06T04:46:23.681Z,15.03
2023-08-06T04:48:51.105Z,15.04
2023-08-06T04:51:19.019Z,15.04
2023-08-06T04:53:46.544Z,15.05
2023-08-06T04:56:13.517Z,15.06
2023-08-06T04:58:43.689Z,15.06
2023-08-06T05:01:10.690Z,15.10
2023-08-06T05:03:39.016Z,15.11
2023-08-06T05:06:06.997Z,15.09
2023-08-06T05:08:36.472Z,15.10
2023-08-06T05:11:03.510Z,15.10
2023-08-06T05:16:22.613Z,15.11
2023-08-06T05:18:49.874Z,15.12
2023-08-06T05:21:16.743Z,15.10
2023-08-06T05:23:45.538Z,15.12
2023-08-06T05:26:12.358Z,15.11
2023-08-06T05:28:40.045Z,15.12
2023-08-06T05:31:10.108Z,15.18
2023-08-06T05:33:36.947Z,15.17
2023-08-06T05:36:04.211Z,15.16
2023-08-06T05:38:31.546Z,15.19
2023-08-06T05:41:01.619Z,15.18
2023-08-06T05:43:32.120Z,15.20
2023-08-06T05:45:59.045Z,15.24
2023-08-06T05:48:27.022Z,15.25
2023-08-06T05:50:53.957Z,15.28
2023-08-06T05:53:20.797Z,15.28
2023-08-06T05:55:49.115Z,15.30
2023-08-06T05:58:15.983Z,15.28
2023-08-06T06:00:42.987Z,15.29
2023-08-06T06:03:11.593Z,15.31
2023-08-06T06:05:39.573Z,15.32
2023-08-06T06:08:06.468Z,15.38
2023-08-06T06:10:35.521Z,15.40
2023-08-06T06:13:02.575Z,15.42
2023-08-06T06:15:29.678Z,15.41
2023-08-06T06:17:56.522Z,15.43
2023-08-06T06:20:23.464Z,15.45
2023-08-06T06:22:50.549Z,15.48
2023-08-06T06:25:20.926Z,15.50
2023-08-06T06:27:51.546Z,15.50
2023-08-06T06:30:19.021Z,15.50
2023-08-06T06:32:45.942Z,15.51
2023-08-06T06:35:14.676Z,15.53
2023-08-06T06:37:41.972Z,15.59
2023-08-06T06:40:09.097Z,15.56
2023-08-06T06:42:39.725Z,15.61
2023-08-06T06:45:09.863Z,15.64
2023-08-06T06:47:36.729Z,15.65
2023-08-06T06:50:03.757Z,15.66
2023-08-06T06:52:32.650Z,15.67
2023-08-06T06:54:59.986Z,15.67
2023-08-06T06:57:27.010Z,15.69
2023-08-06T06:59:53.874Z,15.70
2023-08-06T07:02:20.822Z,15.72
2023-08-06T07:04:48.268Z,15.73
2023-08-06T07:07:15.104Z,15.75
2023-08-06T07:09:42.048Z,15.78
2023-08-06T07:12:09.074Z,15.77
2023-08-06T07:14:35.982Z,15.78
2023-08-06T07:17:05.142Z,15.81
2023-08-06T07:19:32.048Z,15.81
2023-08-06T07:21:58.950Z,15.81
2023-08-06T07:24:25.952Z,15.84
2023-08-06T07:26:52.846Z,15.85
2023-08-06T07:29:19.659Z,15.87
2023-08-06T07:31:47.641Z,15.92
2023-08-06T07:34:14.506Z,15.96
2023-08-06T07:36:41.486Z,15.97
2023-08-06T07:39:08.321Z,16.00
2023-08-06T07:41:36.523Z,16.03
2023-08-06T07:44:03.449Z,15.98
2023-08-06T07:46:30.314Z,15.99
2023-08-06T07:48:57.399Z,15.94
2023-08-06T07:51:24.351Z,15.94
2023-08-06T07:53:51.183Z,15.97
2023-08-06T07:56:18.073Z,15.96
2023-08-06T07:58:45.054Z,15.96
2023-08-06T08:01:11.877Z,15.99
2023-08-06T08:06:29.968Z,16.09
2023-08-06T08:08:56.753Z,16.02
2023-08-06T08:11:23.611Z,16.02
2023-08-06T08:13:50.566Z,15.99
2023-08-06T08:16:17.581Z,16.01
2023-08-06T08:18:44.625Z,16.04
2023-08-06T08:21:11.449Z,16.04
2023-08-06T08:23:38.427Z,16.06
2023-08-06T08:26:05.346Z,16.06
2023-08-06T08:28:32.197Z,16.06
2023-08-06T08:30:59.105Z,16.00
2023-08-06T08:33:26.060Z,16.03
2023-08-06T08:35:53.030Z,16.06
2023-08-06T08:38:19.818Z,16.03
2023-08-06T08:40:48.893Z,16.02
2023-08-06T08:43:17.030Z,16.00
2023-08-06T08:45:45.591Z,16.01
2023-08-06T08:48:13.772Z,16.05
2023-08-06T08:50:41.324Z,16.14
2023-08-06T08:53:09.869Z,16.20
2023-08-06T08:55:38.417Z,16.18
2023-08-06T08:58:05.243Z,16.19
2023-08-06T09:00:33.244Z,16.14
2023-08-06T09:03:00.296Z,16.07
2023-08-06T09:05:30.565Z,16.02
2023-08-06T09:08:07.731Z,16.00
2023-08-06T09:10:35.157Z,16.00
2023-08-06T09:13:02.156Z,15.97
2023-08-06T09:15:29.938Z,15.96
2023-08-06T09:17:57.278Z,15.96
2023-08-06T09:20:25.132Z,15.97
2023-08-06T09:22:54.682Z,15.94
2023-08-06T09:25:24.762Z,15.87
2023-08-06T09:27:52.807Z,15.84
2023-08-06T09:30:36.711Z,15.81
2023-08-06T09:33:03.837Z,15.68
2023-08-06T09:35:32.799Z,15.56
2023-08-06T09:38:10.181Z,15.50
2023-08-06T09:40:38.430Z,15.46
2023-08-06T09:43:06.623Z,15.41
2023-08-06T09:45:36.116Z,15.44
2023-08-06T09:48:10.565Z,15.39
2023-08-06T09:50:38.937Z,15.35
2023-08-06T09:53:07.333Z,15.33
2023-08-06T09:55:35.293Z,15.33
2023-08-06T09:58:02.552Z,15.27
2023-08-06T10:00:33.222Z,15.18
2023-08-06T10:03:09.369Z,15.09
2023-08-06T10:05:38.406Z,15.03
2023-08-06T10:08:07.547Z,15.00
2023-08-06T10:10:36.299Z,15.05
2023-08-06T10:13:07.608Z,15.06
2023-08-06T10:15:35.590Z,15.13
2023-08-06T10:18:03.624Z,15.15
2023-08-06T10:20:37.720Z,15.20
2023-08-06T10:23:07.717Z,15.17
2023-08-06T10:25:36.078Z,15.15
2023-08-06T10:28:10.668Z,15.13
2023-08-06T10:30:44.543Z,15.19
2023-08-06T10:33:11.468Z,15.21
2023-08-06T10:35:49.790Z,15.27
2023-08-06T10:38:23.697Z,15.35
2023-08-06T10:43:48.738Z,15.41
2023-08-06T10:46:31.816Z,15.40
2023-08-06T10:48:59.776Z,15.39
2023-08-06T10:51:26.788Z,15.32
2023-08-06T10:53:54.769Z,15.33
2023-08-06T10:56:25.329Z,15.38
2023-08-06T10:58:58.118Z,15.41
2023-08-06T11:01:25.870Z,15.51
2023-08-06T11:03:53.249Z,15.56
2023-08-06T11:06:23.773Z,15.63
2023-08-06T11:08:55.414Z,15.71
2023-08-06T11:11:24.593Z,15.76
2023-08-06T11:13:52.804Z,15.80
2023-08-06T11:16:21.861Z,15.83
2023-08-06T11:18:50.840Z,15.86
2023-08-06T11:21:21.466Z,15.84
2023-08-06T11:23:48.728Z,15.81
2023-08-06T11:26:20.826Z,15.77
2023-08-06T11:28:48.306Z,15.75
2023-08-06T11:31:24.039Z,15.73
2023-08-06T11:33:52.366Z,15.71
2023-08-06T11:36:36.778Z,15.72
2023-08-06T11:39:04.618Z,15.71
2023-08-06T11:41:33.589Z,15.70
2023-08-06T11:44:02.760Z,15.70
2023-08-06T11:46:29.972Z,15.70
2023-08-06T11:48:57.986Z,15.67
2023-08-06T11:51:29.423Z,15.67
2023-08-06T11:53:58.119Z,15.65
2023-08-06T11:56:29.408Z,15.64
2023-08-06T11:58:57.733Z,15.60
2023-08-06T12:01:24.911Z,15.56
2023-08-06T12:03:51.812Z,15.52
2023-08-06T12:06:18.583Z,15.51
2023-08-06T12:08:45.918Z,15.53
2023-08-06T12:11:12.734Z,15.52
2023-08-06T12:16:30.156Z,15.55
2023-08-06T12:18:56.939Z,15.55
2023-08-06T12:21:27.258Z,15.55
2023-08-06T12:23:54.813Z,15.60
2023-08-06T12:26:22.217Z,15.57
2023-08-06T12:28:48.963Z,15.60
2023-08-06T12:31:17.760Z,15.62
2023-08-06T12:33:45.677Z,15.67
2023-08-06T12:36:12.472Z,15.65
2023-08-06T12:38:40.771Z,15.69
2023-08-06T12:41:07.683Z,15.74
2023-08-06T12:43:34.558Z,15.73
2023-08-06T12:46:03.937Z,15.76
2023-08-06T12:48:34.254Z,15.77
2023-08-06T12:51:01.227Z,15.83
2023-08-06T12:53:28.093Z,15.85
2023-08-06T12:55:55.194Z,15.87
2023-08-06T12:58:22.426Z,15.91
2023-08-06T13:00:49.423Z,15.96
2023-08-06T13:03:17.646Z,16.00
2023-08-06T13:05:44.927Z,16.02
2023-08-06T13:08:12.324Z,16.09
2023-08-06T13:10:40.892Z,16.14
2023-08-06T13:13:08.760Z,16.19
2023-08-06T13:15:36.000Z,16.23
2023-08-06T13:18:03.817Z,16.32
2023-08-06T13:20:34.891Z,16.39
2023-08-06T13:23:01.686Z,16.42
2023-08-06T13:25:29.486Z,16.48
2023-08-06T13:27:56.892Z,16.51
2023-08-06T13:30:24.180Z,16.55
2023-08-06T13:35:43.778Z,16.63
2023-08-06T13:38:14.486Z,16.67
2023-08-06T13:40:41.585Z,16.74
2023-08-06T13:43:08.557Z,16.79
2023-08-06T13:45:35.610Z,16.82
2023-08-06T13:50:57.799Z,16.96
2023-08-06T13:53:25.690Z,17.02
2023-08-06T13:55:53.870Z,17.03
2023-08-06T13:58:21.017Z,17.08
2023-08-06T14:00:48.805Z,17.13
2023-08-06T14:03:16.112Z,17.17
2023-08-06T14:05:42.993Z,17.27
2023-08-06T14:08:10.219Z,17.32
2023-08-06T14:10:42.897Z,17.32
2023-08-06T14:13:11.412Z,17.35
2023-08-06T14:15:39.051Z,17.37
2023-08-06T14:18:06.935Z,17.42
2023-08-06T14:20:34.402Z,17.40
2023-08-06T14:23:01.593Z,17.39
2023-08-06T14:25:29.827Z,17.34
2023-08-06T14:27:57.058Z,17.30
2023-08-06T14:30:24.132Z,17.26
2023-08-06T14:32:51.687Z,17.21
2023-08-06T14:35:18.548Z,17.19
2023-08-06T14:37:50.822Z,17.20
2023-08-06T14:40:17.746Z,17.24
2023-08-06T14:42:44.921Z,17.26
2023-08-06T14:45:14.028Z,17.27
2023-08-06T14:47:42.824Z,17.24
2023-08-06T14:50:10.366Z,17.24
2023-08-06T14:52:37.624Z,17.25
2023-08-06T14:55:07.384Z,17.25
2023-08-06T14:57:35.327Z,17.24
2023-08-06T15:00:02.425Z,17.26
2023-08-06T15:02:31.443Z,17.24
2023-08-06T15:04:58.902Z,17.19
2023-08-06T15:07:26.351Z,17.15
2023-08-06T15:10:14.975Z,17.10
2023-08-06T15:12:42.904Z,17.04
2023-08-06T15:15:10.479Z,17.01
2023-08-06T15:17:38.884Z,16.98
2023-08-06T15:20:06.352Z,16.93
2023-08-06T15:22:35.865Z,16.94
2023-08-06T15:25:03.353Z,16.98
2023-08-06T15:27:31.366Z,17.02
2023-08-06T15:29:58.500Z,17.04
2023-08-06T15:32:25.886Z,17.09
2023-08-06T15:34:53.391Z,17.12
2023-08-06T15:37:23.742Z,17.17
2023-08-06T15:39:51.124Z,17.20
2023-08-06T15:42:45.912Z,17.27
2023-08-06T15:45:14.635Z,17.32
2023-08-06T15:47:42.724Z,17.41
2023-08-06T15:50:10.576Z,17.49
2023-08-06T15:52:38.744Z,17.56
2023-08-06T15:55:07.056Z,17.53
2023-08-06T15:57:36.067Z,17.47
2023-08-06T16:00:05.128Z,17.42
2023-08-06T16:02:41.666Z,17.41
2023-08-06T16:05:08.942Z,17.26
2023-08-06T16:07:36.126Z,17.27
2023-08-06T16:12:57.190Z,17.23
2023-08-06T16:15:24.091Z,17.19
2023-08-06T16:17:52.673Z,17.15
2023-08-06T16:20:19.866Z,17.09
2023-08-06T16:22:47.254Z,17.04
2023-08-06T16:25:14.533Z,16.98
2023-08-06T16:27:41.920Z,16.97
2023-08-06T16:30:10.308Z,16.93
2023-08-06T16:32:37.883Z,16.87
2023-08-06T16:35:06.996Z,16.83
2023-08-06T16:37:34.067Z,16.78
2023-08-06T16:40:01.671Z,16.77
2023-08-06T16:42:30.984Z,16.73
2023-08-06T16:44:59.014Z,16.69
2023-08-06T16:47:26.185Z,16.63
2023-08-06T16:49:54.661Z,16.59
2023-08-06T16:52:21.900Z,16.55
2023-08-06T16:54:50.309Z,16.51
2023-08-06T16:57:18.861Z,16.51
2023-08-06T16:59:46.024Z,16.51
2023-08-06T17:02:14.211Z,16.49
2023-08-06T17:04:41.402Z,16.51
2023-08-06T17:07:08.712Z,16.51
2023-08-06T17:09:37.963Z,16.52
2023-08-06T17:12:06.072Z,16.53
2023-08-06T17:14:33.484Z,16.46
2023-08-06T17:17:04.264Z,16.42
2023-08-06T17:19:31.535Z,16.37
2023-08-06T17:21:59.975Z,16.36
2023-08-06T17:24:27.560Z,16.34
2023-08-06T17:26:58.821Z,16.32
2023-08-06T17:29:27.441Z,16.31
2023-08-06T17:31:54.997Z,16.29
2023-08-06T17:34:23.032Z,16.28
2023-08-06T17:36:50.273Z,16.27
2023-08-06T17:39:17.047Z,16.27
2023-08-06T17:41:47.931Z,16.22
2023-08-06T17:44:15.942Z,16.23
2023-08-06T17:46:44.128Z,16.18
2023-08-06T17:49:11.476Z,16.16
2023-08-06T17:51:38.905Z,16.15
2023-08-06T17:54:06.037Z,16.12
2023-08-06T17:56:35.514Z,16.12
2023-08-06T17:59:03.044Z,16.11
2023-08-06T18:01:30.464Z,16.08
2023-08-06T18:03:57.549Z,16.07
2023-08-06T18:06:24.386Z,16.04
2023-08-06T18:08:53.096Z,16.03
2023-08-06T18:11:20.379Z,16.03
2023-08-06T18:13:48.255Z,16.06
2023-08-06T18:16:16.094Z,16.06
2023-08-06T18:18:43.329Z,16.04
2023-08-06T18:21:11.732Z,16.06
2023-08-06T18:23:39.191Z,15.99
2023-08-06T18:26:06.708Z,15.97
2023-08-06T18:28:33.841Z,15.90
2023-08-06T18:31:01.521Z,15.84
2023-08-06T18:33:29.068Z,15.83
2023-08-06T18:35:56.185Z,15.84
2023-08-06T18:38:23.010Z,15.79
2023-08-06T18:41:01.088Z,15.79
2023-08-06T18:43:29.028Z,15.78
2023-08-06T18:45:59.666Z,15.84
2023-08-06T18:48:27.168Z,15.82
2023-08-06T18:50:55.574Z,15.80
2023-08-06T18:53:22.675Z,15.80
2023-08-06T18:58:43.119Z,15.75
2023-08-06T19:01:10.276Z,15.69
2023-08-06T19:03:38.122Z,15.65
2023-08-06T19:06:06.296Z,15.62
2023-08-06T19:08:34.149Z,15.52
2023-08-06T19:11:01.165Z,15.45
2023-08-06T19:13:30.266Z,15.37
2023-08-06T19:15:58.381Z,15.28
2023-08-06T19:18:26.074Z,15.26
2023-08-06T19:20:59.086Z,15.20
2023-08-06T19:23:28.719Z,15.16
2023-08-06T19:25:56.574Z,15.20
2023-08-06T19:28:23.642Z,15.17
2023-08-06T19:30:51.228Z,15.12
2023-08-06T19:33:18.886Z,15.08
2023-08-06T19:35:52.386Z,15.05
2023-08-06T19:38:24.734Z,15.03
2023-08-06T19:41:02.498Z,15.02
2023-08-06T19:43:30.896Z,15.01
2023-08-06T19:45:59.438Z,15.04
2023-08-06T19:48:27.019Z,15.01
2023-08-06T19:50:55.641Z,14.97
2023-08-06T19:53:25.117Z,14.93
2023-08-06T19:55:52.615Z,14.90
2023-08-06T19:58:19.518Z,14.92
2023-08-06T20:00:49.105Z,14.95
2023-08-06T20:03:41.884Z,14.93
2023-08-06T20:06:10.113Z,14.92
2023-08-06T20:08:37.970Z,14.89
2023-08-06T20:11:05.870Z,14.84
2023-08-06T20:13:35.134Z,14.82
2023-08-06T20:16:02.723Z,14.84
2023-08-06T20:18:31.094Z,14.79
2023-08-06T20:20:58.859Z,14.77
2023-08-06T20:23:27.909Z,14.78
2023-08-06T20:25:54.993Z,14.76
2023-08-06T20:28:22.162Z,14.74
2023-08-06T20:30:50.071Z,14.73
2023-08-06T20:33:17.671Z,14.72
2023-08-06T20:35:46.158Z,14.69
2023-08-06T20:38:14.989Z,14.68
2023-08-06T20:40:43.438Z,14.66
2023-08-06T20:43:11.373Z,14.69
2023-08-06T20:45:38.876Z,14.70
2023-08-06T20:48:06.161Z,14.66
2023-08-06T20:50:34.413Z,14.63
2023-08-06T20:53:01.539Z,14.61
2023-08-06T20:55:30.232Z,14.58
2023-08-06T20:57:57.060Z,14.57
2023-08-06T21:00:24.102Z,14.58
2023-08-06T21:02:51.138Z,14.55
2023-08-06T21:05:18.097Z,14.54
2023-08-06T21:07:44.966Z,14.52
2023-08-06T21:10:14.179Z,14.51
2023-08-06T21:12:41.014Z,14.49
2023-08-06T21:15:09.291Z,14.50
2023-08-06T21:17:36.215Z,14.57
2023-08-06T21:20:03.562Z,14.55
2023-08-06T21:22:32.168Z,14.60
2023-08-06T21:24:59.241Z,14.57
2023-08-06T21:27:26.066Z,14.61
2023-08-06T21:29:53.191Z,14.64
2023-08-06T21:32:20.068Z,14.61
2023-08-06T21:34:47.187Z,14.62
2023-08-06T21:37:14.134Z,14.64
2023-08-06T21:39:40.982Z,14.66
2023-08-06T21:42:07.836Z,14.65
2023-08-06T21:44:35.226Z,14.63
2023-08-06T21:47:02.005Z,14.60
2023-08-06T21:49:29.025Z,14.63
2023-08-06T21:51:56.077Z,14.61
2023-08-06T21:54:24.123Z,14.61
2023-08-06T21:56:51.197Z,14.58
2023-08-06T21:59:19.634Z,14.57
2023-08-06T22:01:46.459Z,14.61
2023-08-06T22:04:13.337Z,14.60
2023-08-06T22:06:40.799Z,14.62
2023-08-06T22:09:07.769Z,14.59
2023-08-06T22:11:34.701Z,14.58
2023-08-06T22:14:01.493Z,14.58
2023-08-06T22:16:31.748Z,14.55
2023-08-06T22:18:58.580Z,14.61
2023-08-06T22:21:29.149Z,14.63
2023-08-06T22:23:56.050Z,14.58
2023-08-06T22:26:23.186Z,14.52
2023-08-06T22:29:00.612Z,14.51
2023-08-06T22:31:29.073Z,14.50
2023-08-06T22:33:56.066Z,14.46
2023-08-06T22:36:23.045Z,14.47
2023-08-06T22:38:50.023Z,14.45
2023-08-06T22:41:16.845Z,14.40
2023-08-06T22:43:43.734Z,14.41
2023-08-06T22:46:10.546Z,14.40
2023-08-06T22:48:38.313Z,14.40
2023-08-06T22:51:05.138Z,14.42
2023-08-06T22:53:32.656Z,14.44
2023-08-06T22:56:09.054Z,14.39
2023-08-06T22:58:36.991Z,14.36
2023-08-06T23:01:04.079Z,14.36
2023-08-06T23:03:31.859Z,14.36
2023-08-06T23:06:00.224Z,14.44
2023-08-06T23:08:30.641Z,14.40
2023-08-06T23:10:57.785Z,14.38
2023-08-06T23:13:24.684Z,14.37
2023-08-06T23:15:51.751Z,14.43
2023-08-06T23:18:22.280Z,14.41
2023-08-06T23:20:49.746Z,14.37
2023-08-06T23:23:16.669Z,14.38
2023-08-06T23:25:44.627Z,14.35
2023-08-06T23:28:11.446Z,14.34
2023-08-06T23:30:44.314Z,14.34
2023-08-06T23:33:12.654Z,14.33
2023-08-06T23:35:39.431Z,14.33
2023-08-06T23:38:06.709Z,14.38
2023-08-06T23:40:33.491Z,14.45
2023-08-06T23:43:02.916Z,14.46
2023-08-06T23:45:29.969Z,14.42
2023-08-06T23:47:57.677Z,14.40
2023-08-06T23:50:24.619Z,14.38
2023-08-06T23:52:51.632Z,14.38
2023-08-06T23:55:18.411Z,14.38
2023-08-06T23:57:45.283Z,14.40
